sensor_id;sensor_type;location;lat;lon;timestamp;pressure;altitude;pressure_sealevel;temperature;humidity
75717;BME280;64333;50.138;14.332;2022-10-16T00:01:40;98032.97;;;15.33;87.19
75717;BME280;64333;50.138;14.332;2022-10-16T00:04:06;98035.47;;;15.35;86.94
75717;BME280;64333;50.138;14.332;2022-10-16T00:06:31;98039.97;;;15.31;86.45
75717;BME280;64333;50.138;14.332;2022-10-16T00:08:57;98022.38;;;15.22;86.90
75717;BME280;64333;50.138;14.332;2022-10-16T00:11:29;98028.44;;;15.23;87.24
75717;BME280;64333;50.138;14.332;2022-10-16T00:13:57;98033.53;;;15.24;87.40
75717;BME280;64333;50.138;14.332;2022-10-16T00:16:23;98017.25;;;15.08;86.93
75717;BME280;64333;50.138;14.332;2022-10-16T00:18:49;98037.59;;;15.16;87.58
75717;BME280;64333;50.138;14.332;2022-10-16T00:21:21;98031.13;;;15.21;87.86
75717;BME280;64333;50.138;14.332;2022-10-16T00:23:46;98035.25;;;15.11;86.88
75717;BME280;64333;50.138;14.332;2022-10-16T00:26:16;98035.25;;;15.11;87.93
75717;BME280;64333;50.138;14.332;2022-10-16T00:28:41;98045.38;;;15.16;87.54
75717;BME280;64333;50.138;14.332;2022-10-16T00:31:10;98054.34;;;15.24;87.36
75717;BME280;64333;50.138;14.332;2022-10-16T00:33:36;98055.19;;;15.25;87.28
75717;BME280;64333;50.138;14.332;2022-10-16T00:36:03;98055.91;;;15.27;86.81
75717;BME280;64333;50.138;14.332;2022-10-16T00:38:29;98054.59;;;15.34;86.31
75717;BME280;64333;50.138;14.332;2022-10-16T00:40:55;98059.09;;;15.44;86.30
75717;BME280;64333;50.138;14.332;2022-10-16T00:46:23;98059.63;;;15.49;86.45
75717;BME280;64333;50.138;14.332;2022-10-16T00:49:08;98053.88;;;15.44;85.93
75717;BME280;64333;50.138;14.332;2022-10-16T00:51:37;98052.13;;;15.57;85.80
75717;BME280;64333;50.138;14.332;2022-10-16T00:54:09;98057.53;;;15.67;84.79
75717;BME280;64333;50.138;14.332;2022-10-16T00:56:37;98053.72;;;15.72;84.86
75717;BME280;64333;50.138;14.332;2022-10-16T00:59:23;98058.16;;;15.70;85.30
75717;BME280;64333;50.138;14.332;2022-10-16T01:01:59;98069.75;;;15.66;85.31
75717;BME280;64333;50.138;14.332;2022-10-16T01:04:26;98072.13;;;15.69;84.84
75717;BME280;64333;50.138;14.332;2022-10-16T01:15:30;98067.88;;;15.29;86.43
75717;BME280;64333;50.138;14.332;2022-10-16T01:31:50;98067.88;;;14.64;90.14
75717;BME280;64333;50.138;14.332;2022-10-16T01:34:25;98058.31;;;14.64;89.38
75717;BME280;64333;50.138;14.332;2022-10-16T01:37:02;98063.88;;;14.58;90.46
75717;BME280;64333;50.138;14.332;2022-10-16T01:39:32;98056.34;;;14.41;90.50
75717;BME280;64333;50.138;14.332;2022-10-16T01:42:12;98067.09;;;14.35;91.19
75717;BME280;64333;50.138;14.332;2022-10-16T01:44:41;98064.97;;;14.28;91.60
75717;BME280;64333;50.138;14.332;2022-10-16T01:47:09;98067.69;;;14.26;91.86
75717;BME280;64333;50.138;14.332;2022-10-16T01:49:36;98060.69;;;14.13;92.24
75717;BME280;64333;50.138;14.332;2022-10-16T01:52:06;98055.22;;;14.17;92.37
75717;BME280;64333;50.138;14.332;2022-10-16T01:54:34;98054.84;;;14.09;92.37
75717;BME280;64333;50.138;14.332;2022-10-16T01:57:03;98067.69;;;14.12;92.16
75717;BME280;64333;50.138;14.332;2022-10-16T01:59:31;98068.06;;;14.20;91.94
75717;BME280;64333;50.138;14.332;2022-10-16T02:02:07;98058.66;;;14.32;91.52
75717;BME280;64333;50.138;14.332;2022-10-16T02:04:39;98055.97;;;14.33;90.55
75717;BME280;64333;50.138;14.332;2022-10-16T02:07:07;98061.44;;;14.43;90.46
75717;BME280;64333;50.138;14.332;2022-10-16T02:09:33;98056.69;;;14.49;90.79
75717;BME280;64333;50.138;14.332;2022-10-16T02:12:03;98067.81;;;14.51;89.76
75717;BME280;64333;50.138;14.332;2022-10-16T02:14:32;98068.06;;;14.61;89.47
75717;BME280;64333;50.138;14.332;2022-10-16T02:16:57;98062.22;;;14.57;89.46
75717;BME280;64333;50.138;14.332;2022-10-16T02:19:23;98048.88;;;14.49;90.02
75717;BME280;64333;50.138;14.332;2022-10-16T02:22:10;98046.59;;;14.45;90.61
75717;BME280;64333;50.138;14.332;2022-10-16T02:24:54;98053.72;;;14.41;90.68
75717;BME280;64333;50.138;14.332;2022-10-16T02:30:08;98061.25;;;14.46;90.29
75717;BME280;64333;50.138;14.332;2022-10-16T02:32:39;98067.28;;;14.46;89.98
75717;BME280;64333;50.138;14.332;2022-10-16T02:35:07;98062.00;;;14.34;90.64
75717;BME280;64333;50.138;14.332;2022-10-16T02:37:34;98074.34;;;14.30;91.17
75717;BME280;64333;50.138;14.332;2022-10-16T02:40:00;98066.63;;;14.15;90.89
75717;BME280;64333;50.138;14.332;2022-10-16T02:42:33;98082.00;;;14.19;91.39
75717;BME280;64333;50.138;14.332;2022-10-16T02:44:58;98069.22;;;14.15;91.18
75717;BME280;64333;50.138;14.332;2022-10-16T02:47:24;98072.97;;;14.11;91.67
75717;BME280;64333;50.138;14.332;2022-10-16T02:49:50;98091.53;;;14.19;91.26
75717;BME280;64333;50.138;14.332;2022-10-16T02:52:15;98081.31;;;14.16;91.18
75717;BME280;64333;50.138;14.332;2022-10-16T02:54:41;98082.13;;;14.16;91.63
75717;BME280;64333;50.138;14.332;2022-10-16T02:57:06;98082.22;;;14.15;91.65
75717;BME280;64333;50.138;14.332;2022-10-16T02:59:31;98086.50;;;14.16;91.60
75717;BME280;64333;50.138;14.332;2022-10-16T03:01:57;98092.50;;;14.16;91.27
75717;BME280;64333;50.138;14.332;2022-10-16T03:04:22;98098.56;;;14.17;91.47
75717;BME280;64333;50.138;14.332;2022-10-16T03:06:47;98103.09;;;14.13;91.36
75717;BME280;64333;50.138;14.332;2022-10-16T03:09:13;98102.63;;;14.07;91.97
75717;BME280;64333;50.138;14.332;2022-10-16T03:11:38;98080.84;;;13.95;91.13
75717;BME280;64333;50.138;14.332;2022-10-16T03:14:03;98105.13;;;14.08;91.66
75717;BME280;64333;50.138;14.332;2022-10-16T03:16:29;98110.91;;;14.13;91.52
75717;BME280;64333;50.138;14.332;2022-10-16T03:18:54;98107.16;;;14.17;91.61
75717;BME280;64333;50.138;14.332;2022-10-16T03:21:19;98108.19;;;14.15;91.19
75717;BME280;64333;50.138;14.332;2022-10-16T03:23:45;98122.63;;;14.20;90.86
75717;BME280;64333;50.138;14.332;2022-10-16T03:26:10;98125.00;;;14.23;90.71
75717;BME280;64333;50.138;14.332;2022-10-16T03:28:35;98125.50;;;14.30;91.13
75717;BME280;64333;50.138;14.332;2022-10-16T03:31:01;98123.16;;;14.39;90.10
75717;BME280;64333;50.138;14.332;2022-10-16T03:33:26;98114.53;;;14.39;90.66
75717;BME280;64333;50.138;14.332;2022-10-16T03:35:53;98127.22;;;14.43;90.19
75717;BME280;64333;50.138;14.332;2022-10-16T03:38:20;98114.53;;;14.39;90.06
75717;BME280;64333;50.138;14.332;2022-10-16T03:40:45;98123.53;;;14.47;90.46
75717;BME280;64333;50.138;14.332;2022-10-16T03:43:11;98121.31;;;14.41;90.57
75717;BME280;64333;50.138;14.332;2022-10-16T03:45:36;98120.38;;;14.42;91.20
75717;BME280;64333;50.138;14.332;2022-10-16T03:48:01;98114.72;;;14.36;91.43
75717;BME280;64333;50.138;14.332;2022-10-16T03:50:28;98110.19;;;14.39;91.97
75717;BME280;64333;50.138;14.332;2022-10-16T03:52:53;98108.09;;;14.44;91.91
75717;BME280;64333;50.138;14.332;2022-10-16T03:55:19;98100.16;;;14.33;92.02
75717;BME280;64333;50.138;14.332;2022-10-16T03:57:44;98113.53;;;14.27;93.42
75717;BME280;64333;50.138;14.332;2022-10-16T04:00:11;98118.06;;;14.24;93.62
75717;BME280;64333;50.138;14.332;2022-10-16T04:02:36;98113.16;;;14.19;93.88
75717;BME280;64333;50.138;14.332;2022-10-16T04:05:02;98126.19;;;14.18;93.41
75717;BME280;64333;50.138;14.332;2022-10-16T04:07:27;98132.63;;;14.12;94.67
75717;BME280;64333;50.138;14.332;2022-10-16T04:09:53;98144.56;;;14.15;93.96
75717;BME280;64333;50.138;14.332;2022-10-16T04:12:19;98144.19;;;14.07;94.75
75717;BME280;64333;50.138;14.332;2022-10-16T04:14:44;98140.00;;;14.04;94.58
75717;BME280;64333;50.138;14.332;2022-10-16T04:17:09;98150.75;;;13.98;94.65
75717;BME280;64333;50.138;14.332;2022-10-16T04:19:35;98150.38;;;13.90;95.02
75717;BME280;64333;50.138;14.332;2022-10-16T04:22:00;98158.38;;;13.87;95.73
75717;BME280;64333;50.138;14.332;2022-10-16T04:24:25;98156.50;;;13.89;95.44
75717;BME280;64333;50.138;14.332;2022-10-16T04:26:51;98158.16;;;13.90;95.21
75717;BME280;64333;50.138;14.332;2022-10-16T04:29:16;98151.31;;;13.89;95.25
75717;BME280;64333;50.138;14.332;2022-10-16T04:31:41;98152.16;;;13.90;95.40
75717;BME280;64333;50.138;14.332;2022-10-16T04:34:07;98149.75;;;14.01;94.57
75717;BME280;64333;50.138;14.332;2022-10-16T04:36:32;98150.75;;;13.98;94.58
75717;BME280;64333;50.138;14.332;2022-10-16T04:38:57;98158.09;;;14.06;94.42
75717;BME280;64333;50.138;14.332;2022-10-16T04:41:23;98167.28;;;14.11;93.62
75717;BME280;64333;50.138;14.332;2022-10-16T04:43:48;98158.84;;;14.08;94.36
75717;BME280;64333;50.138;14.332;2022-10-16T04:46:13;98158.09;;;14.06;93.69
75717;BME280;64333;50.138;14.332;2022-10-16T04:48:39;98165.31;;;14.01;94.48
75717;BME280;64333;50.138;14.332;2022-10-16T04:51:04;98169.13;;;13.95;94.78
75717;BME280;64333;50.138;14.332;2022-10-16T04:53:30;98165.44;;;13.99;94.36
75717;BME280;64333;50.138;14.332;2022-10-16T04:55:55;98155.69;;;14.03;94.45
75717;BME280;64333;50.138;14.332;2022-10-16T04:58:22;98167.84;;;14.02;94.95
75717;BME280;64333;50.138;14.332;2022-10-16T05:00:47;98170.88;;;13.95;95.20
75717;BME280;64333;50.138;14.332;2022-10-16T05:03:13;98169.69;;;14.00;95.54
75717;BME280;64333;50.138;14.332;2022-10-16T05:05:42;98162.84;;;13.99;95.12
75717;BME280;64333;50.138;14.332;2022-10-16T05:08:08;98162.63;;;14.02;94.79
75717;BME280;64333;50.138;14.332;2022-10-16T05:10:34;98160.25;;;13.99;95.35
75717;BME280;64333;50.138;14.332;2022-10-16T05:12:59;98161.34;;;13.95;95.18
75717;BME280;64333;50.138;14.332;2022-10-16T05:15:25;98168.28;;;13.95;95.39
75717;BME280;64333;50.138;14.332;2022-10-16T05:17:53;98163.75;;;13.98;95.18
75717;BME280;64333;50.138;14.332;2022-10-16T05:20:18;98174.97;;;13.99;95.12
75717;BME280;64333;50.138;14.332;2022-10-16T05:22:44;98169.34;;;14.06;94.56
75717;BME280;64333;50.138;14.332;2022-10-16T05:25:09;98176.38;;;14.04;94.87
75717;BME280;64333;50.138;14.332;2022-10-16T05:27:34;98183.41;;;14.02;95.36
75717;BME280;64333;50.138;14.332;2022-10-16T05:30:00;98184.91;;;14.06;95.18
75717;BME280;64333;50.138;14.332;2022-10-16T05:32:25;98188.44;;;14.05;94.99
75717;BME280;64333;50.138;14.332;2022-10-16T05:34:50;98189.25;;;14.06;94.74
75717;BME280;64333;50.138;14.332;2022-10-16T05:37:16;98201.31;;;14.07;95.43
75717;BME280;64333;50.138;14.332;2022-10-16T05:39:41;98196.13;;;14.07;95.24
75717;BME280;64333;50.138;14.332;2022-10-16T05:42:06;98198.44;;;14.11;95.39
75717;BME280;64333;50.138;14.332;2022-10-16T05:44:32;98184.91;;;14.06;94.52
75717;BME280;64333;50.138;14.332;2022-10-16T05:46:58;98196.63;;;14.13;94.83
75717;BME280;64333;50.138;14.332;2022-10-16T05:49:23;98196.97;;;14.07;95.56
75717;BME280;64333;50.138;14.332;2022-10-16T05:51:48;98199.56;;;14.07;95.13
75717;BME280;64333;50.138;14.332;2022-10-16T05:54:14;98191.22;;;14.16;94.34
75717;BME280;64333;50.138;14.332;2022-10-16T05:56:39;98189.16;;;14.23;94.73
75717;BME280;64333;50.138;14.332;2022-10-16T05:59:05;98198.59;;;14.24;94.36
75717;BME280;64333;50.138;14.332;2022-10-16T06:01:31;98210.00;;;14.21;94.26
75717;BME280;64333;50.138;14.332;2022-10-16T06:03:57;98212.84;;;14.17;94.32
75717;BME280;64333;50.138;14.332;2022-10-16T06:06:24;98218.75;;;14.20;94.46
75717;BME280;64333;50.138;14.332;2022-10-16T06:08:51;98228.78;;;14.26;94.68
75717;BME280;64333;50.138;14.332;2022-10-16T06:11:22;98230.81;;;14.35;94.52
75717;BME280;64333;50.138;14.332;2022-10-16T06:13:53;98226.84;;;14.44;93.54
75717;BME280;64333;50.138;14.332;2022-10-16T06:16:18;98227.41;;;14.49;93.46
75717;BME280;64333;50.138;14.332;2022-10-16T06:18:46;98228.94;;;14.51;93.23
75717;BME280;64333;50.138;14.332;2022-10-16T06:21:16;98237.31;;;14.56;93.08
75717;BME280;64333;50.138;14.332;2022-10-16T06:23:42;98233.78;;;14.57;92.87
75717;BME280;64333;50.138;14.332;2022-10-16T06:26:09;98239.47;;;14.64;92.21
75717;BME280;64333;50.138;14.332;2022-10-16T06:28:35;98246.13;;;14.68;92.15
75717;BME280;64333;50.138;14.332;2022-10-16T06:31:02;98245.13;;;14.70;92.40
75717;BME280;64333;50.138;14.332;2022-10-16T06:33:28;98248.00;;;14.80;91.98
75717;BME280;64333;50.138;14.332;2022-10-16T06:35:53;98259.59;;;14.88;91.14
75717;BME280;64333;50.138;14.332;2022-10-16T06:38:19;98260.88;;;14.95;90.41
75717;BME280;64333;50.138;14.332;2022-10-16T06:40:44;98268.41;;;15.00;90.98
75717;BME280;64333;50.138;14.332;2022-10-16T06:43:09;98262.53;;;15.10;89.92
75717;BME280;64333;50.138;14.332;2022-10-16T06:45:35;98259.75;;;15.13;89.87
75717;BME280;64333;50.138;14.332;2022-10-16T06:48:00;98263.81;;;15.17;89.42
75717;BME280;64333;50.138;14.332;2022-10-16T06:50:25;98272.00;;;15.25;89.29
75717;BME280;64333;50.138;14.332;2022-10-16T06:52:51;98276.06;;;15.29;88.54
75717;BME280;64333;50.138;14.332;2022-10-16T06:55:16;98272.19;;;15.36;88.86
75717;BME280;64333;50.138;14.332;2022-10-16T06:57:42;98277.47;;;15.49;88.47
75717;BME280;64333;50.138;14.332;2022-10-16T07:00:08;98280.34;;;15.58;87.12
75717;BME280;64333;50.138;14.332;2022-10-16T07:02:34;98285.75;;;15.68;87.43
75717;BME280;64333;50.138;14.332;2022-10-16T07:04:59;98292.44;;;15.72;86.84
75717;BME280;64333;50.138;14.332;2022-10-16T07:07:25;98296.34;;;15.79;86.87
75717;BME280;64333;50.138;14.332;2022-10-16T07:09:51;98278.19;;;15.77;85.48
75717;BME280;64333;50.138;14.332;2022-10-16T07:12:17;98289.16;;;15.82;86.98
75717;BME280;64333;50.138;14.332;2022-10-16T07:14:42;98304.47;;;15.87;86.47
75717;BME280;64333;50.138;14.332;2022-10-16T07:17:07;98296.34;;;15.79;86.45
75717;BME280;64333;50.138;14.332;2022-10-16T07:19:33;98302.50;;;15.90;86.16
75717;BME280;64333;50.138;14.332;2022-10-16T07:21:58;98308.09;;;15.98;84.96
75717;BME280;64333;50.138;14.332;2022-10-16T07:24:24;98303.06;;;15.95;85.47
75717;BME280;64333;50.138;14.332;2022-10-16T07:26:50;98313.09;;;16.01;84.65
75717;BME280;64333;50.138;14.332;2022-10-16T07:29:18;98313.22;;;16.12;84.67
75717;BME280;64333;50.138;14.332;2022-10-16T07:31:44;98318.56;;;16.23;84.38
75717;BME280;64333;50.138;14.332;2022-10-16T07:34:11;98328.41;;;16.32;84.41
75717;BME280;64333;50.138;14.332;2022-10-16T07:36:37;98323.31;;;16.43;82.51
75717;BME280;64333;50.138;14.332;2022-10-16T07:39:03;98339.50;;;16.48;82.05
75717;BME280;64333;50.138;14.332;2022-10-16T07:41:28;98344.53;;;16.51;82.81
75717;BME280;64333;50.138;14.332;2022-10-16T07:43:55;98328.25;;;16.60;82.50
75717;BME280;64333;50.138;14.332;2022-10-16T07:46:24;98330.13;;;16.58;82.05
75717;BME280;64333;50.138;14.332;2022-10-16T07:48:50;98336.63;;;16.65;81.81
75717;BME280;64333;50.138;14.332;2022-10-16T07:51:18;98338.91;;;16.70;82.44
75717;BME280;64333;50.138;14.332;2022-10-16T07:53:43;98332.22;;;16.66;82.20
75717;BME280;64333;50.138;14.332;2022-10-16T07:56:10;98327.00;;;16.66;81.91
75717;BME280;64333;50.138;14.332;2022-10-16T07:58:35;98312.16;;;16.54;82.72
75717;BME280;64333;50.138;14.332;2022-10-16T08:01:07;98316.56;;;16.66;80.83
75717;BME280;64333;50.138;14.332;2022-10-16T08:03:32;98327.09;;;16.64;81.47
75717;BME280;64333;50.138;14.332;2022-10-16T08:05:59;98316.38;;;16.69;80.72
75717;BME280;64333;50.138;14.332;2022-10-16T08:08:24;98325.94;;;16.81;81.51
75717;BME280;64333;50.138;14.332;2022-10-16T08:10:49;98313.34;;;16.75;82.14
75717;BME280;64333;50.138;14.332;2022-10-16T08:13:15;98328.91;;;16.89;81.27
75717;BME280;64333;50.138;14.332;2022-10-16T08:15:44;98323.88;;;16.98;80.59
75717;BME280;64333;50.138;14.332;2022-10-16T08:18:12;98322.53;;;17.05;80.02
75717;BME280;64333;50.138;14.332;2022-10-16T08:20:38;98343.59;;;17.27;78.81
75717;BME280;64333;50.138;14.332;2022-10-16T08:23:03;98330.28;;;17.30;79.29
75717;BME280;64333;50.138;14.332;2022-10-16T08:25:29;98314.16;;;17.25;79.69
75717;BME280;64333;50.138;14.332;2022-10-16T08:27:54;98346.19;;;17.52;78.83
75717;BME280;64333;50.138;14.332;2022-10-16T08:30:21;98327.06;;;17.51;78.68
75717;BME280;64333;50.138;14.332;2022-10-16T08:32:47;98340.91;;;17.64;78.24
75717;BME280;64333;50.138;14.332;2022-10-16T08:35:13;98332.31;;;17.75;77.40
75717;BME280;64333;50.138;14.332;2022-10-16T08:37:39;98345.81;;;17.92;77.13
75717;BME280;64333;50.138;14.332;2022-10-16T08:40:06;98345.72;;;17.94;76.02
75717;BME280;64333;50.138;14.332;2022-10-16T08:46:15;98378.38;;;18.12;76.60
75717;BME280;64333;50.138;14.332;2022-10-16T08:48:50;98375.94;;;17.98;77.01
75717;BME280;64333;50.138;14.332;2022-10-16T08:51:29;98378.22;;;18.02;76.59
75717;BME280;64333;50.138;14.332;2022-10-16T08:56:48;98372.09;;;18.61;74.37
75717;BME280;64333;50.138;14.332;2022-10-16T08:59:14;98383.44;;;18.84;73.81
75717;BME280;64333;50.138;14.332;2022-10-16T09:01:44;98383.06;;;19.34;72.02
75717;BME280;64333;50.138;14.332;2022-10-16T09:06:55;98373.91;;;20.26;68.10
75717;BME280;64333;50.138;14.332;2022-10-16T09:12:26;98367.84;;;21.58;64.04
75717;BME280;64333;50.138;14.332;2022-10-16T09:17:37;98354.28;;;24.93;54.51
75717;BME280;64333;50.138;14.332;2022-10-16T09:22:45;98358.50;;;32.90;35.06
75717;BME280;64333;50.138;14.332;2022-10-16T09:25:16;98347.72;;;34.25;31.80
75717;BME280;64333;50.138;14.332;2022-10-16T09:27:45;98350.59;;;35.16;30.62
75717;BME280;64333;50.138;14.332;2022-10-16T09:30:13;98354.09;;;36.13;28.63
75717;BME280;64333;50.138;14.332;2022-10-16T09:32:40;98353.22;;;35.65;28.84
75717;BME280;64333;50.138;14.332;2022-10-16T09:35:12;98352.75;;;35.75;29.12
75717;BME280;64333;50.138;14.332;2022-10-16T09:37:40;98366.25;;;35.26;29.30
75717;BME280;64333;50.138;14.332;2022-10-16T09:40:11;98353.81;;;38.18;26.07
75717;BME280;64333;50.138;14.332;2022-10-16T09:42:37;98360.88;;;35.86;28.55
75717;BME280;64333;50.138;14.332;2022-10-16T09:45:03;98375.34;;;32.11;34.29
75717;BME280;64333;50.138;14.332;2022-10-16T09:47:30;98375.25;;;29.09;39.07
75717;BME280;64333;50.138;14.332;2022-10-16T09:52:25;98387.91;;;28.09;42.65
75717;BME280;64333;50.138;14.332;2022-10-16T09:54:56;98381.53;;;28.49;41.97
75717;BME280;64333;50.138;14.332;2022-10-16T09:57:22;98378.63;;;32.66;34.26
75717;BME280;64333;50.138;14.332;2022-10-16T09:59:58;98372.59;;;30.25;37.01
75717;BME280;64333;50.138;14.332;2022-10-16T10:02:30;98389.16;;;28.21;41.69
75717;BME280;64333;50.138;14.332;2022-10-16T10:04:57;98384.09;;;32.39;33.29
75717;BME280;64333;50.138;14.332;2022-10-16T10:07:28;98404.75;;;32.71;32.43
75717;BME280;64333;50.138;14.332;2022-10-16T10:09:58;98396.13;;;34.80;29.29
75717;BME280;64333;50.138;14.332;2022-10-16T10:12:25;98397.16;;;35.10;28.63
75717;BME280;64333;50.138;14.332;2022-10-16T10:14:56;98377.91;;;34.07;29.92
75717;BME280;64333;50.138;14.332;2022-10-16T10:17:27;98376.75;;;33.71;31.40
75717;BME280;64333;50.138;14.332;2022-10-16T10:20:01;98387.84;;;29.81;37.75
75717;BME280;64333;50.138;14.332;2022-10-16T10:22:44;98400.44;;;28.23;42.14
75717;BME280;64333;50.138;14.332;2022-10-16T10:30:43;98397.50;;;26.36;46.91
75717;BME280;64333;50.138;14.332;2022-10-16T10:38:57;98384.03;;;28.95;39.29
75717;BME280;64333;50.138;14.332;2022-10-16T11:08:39;98396.56;;;28.03;40.88
75717;BME280;64333;50.138;14.332;2022-10-16T11:11:18;98402.41;;;27.28;43.77
75717;BME280;64333;50.138;14.332;2022-10-16T11:13:58;98397.09;;;25.73;47.16
75717;BME280;64333;50.138;14.332;2022-10-16T11:16:38;98393.03;;;25.02;48.74
75717;BME280;64333;50.138;14.332;2022-10-16T11:19:13;98398.84;;;26.40;45.58
75717;BME280;64333;50.138;14.332;2022-10-16T11:24:45;98386.69;;;33.51;32.30
75717;BME280;64333;50.138;14.332;2022-10-16T11:27:26;98376.53;;;34.42;29.53
75717;BME280;64333;50.138;14.332;2022-10-16T11:29:58;98389.38;;;29.90;37.09
75717;BME280;64333;50.138;14.332;2022-10-16T11:32:31;98392.16;;;28.18;40.98
75717;BME280;64333;50.138;14.332;2022-10-16T11:35:11;98397.84;;;28.91;39.82
75717;BME280;64333;50.138;14.332;2022-10-16T11:37:43;98392.19;;;29.45;39.10
75717;BME280;64333;50.138;14.332;2022-10-16T11:40:16;98391.56;;;30.01;37.41
75717;BME280;64333;50.138;14.332;2022-10-16T11:42:54;98397.94;;;27.91;41.36
75717;BME280;64333;50.138;14.332;2022-10-16T11:45:32;98401.88;;;26.53;45.68
75717;BME280;64333;50.138;14.332;2022-10-16T11:48:30;98393.63;;;25.73;47.72
75717;BME280;64333;50.138;14.332;2022-10-16T11:51:14;98400.41;;;24.46;50.17
75717;BME280;64333;50.138;14.332;2022-10-16T11:56:20;98406.31;;;23.96;52.75
75717;BME280;64333;50.138;14.332;2022-10-16T11:58:59;98393.13;;;24.13;52.87
75717;BME280;64333;50.138;14.332;2022-10-16T12:04:17;98389.91;;;24.37;52.15
75717;BME280;64333;50.138;14.332;2022-10-16T12:11:52;98395.34;;;25.23;49.09
75717;BME280;64333;50.138;14.332;2022-10-16T12:14:21;98393.00;;;25.45;48.53
75717;BME280;64333;50.138;14.332;2022-10-16T12:16:58;98387.31;;;25.66;47.80
75717;BME280;64333;50.138;14.332;2022-10-16T12:19:30;98387.81;;;26.03;47.59
75717;BME280;64333;50.138;14.332;2022-10-16T12:21:58;98382.75;;;26.33;46.02
75717;BME280;64333;50.138;14.332;2022-10-16T12:26:55;98363.25;;;26.50;45.24
75717;BME280;64333;50.138;14.332;2022-10-16T12:29:38;98376.75;;;26.07;44.84
75717;BME280;64333;50.138;14.332;2022-10-16T12:32:19;98370.31;;;27.62;42.35
75717;BME280;64333;50.138;14.332;2022-10-16T12:34:48;98374.50;;;28.78;38.92
75717;BME280;64333;50.138;14.332;2022-10-16T12:37:23;98385.72;;;31.25;35.16
75717;BME280;64333;50.138;14.332;2022-10-16T12:39:51;98357.22;;;36.76;26.07
75717;BME280;64333;50.138;14.332;2022-10-16T12:42:30;98376.94;;;39.48;22.56
75717;BME280;64333;50.138;14.332;2022-10-16T12:44:56;98373.75;;;39.51;22.31
75717;BME280;64333;50.138;14.332;2022-10-16T12:49:59;98366.44;;;31.02;33.22
75717;BME280;64333;50.138;14.332;2022-10-16T12:54:59;98377.88;;;25.12;45.57
75717;BME280;64333;50.138;14.332;2022-10-16T13:00:07;98318.03;;;23.81;48.36
75717;BME280;64333;50.138;14.332;2022-10-16T13:07:59;98397.00;;;25.49;46.28
75717;BME280;64333;50.138;14.332;2022-10-16T13:10:40;98402.13;;;25.84;46.03
75717;BME280;64333;50.138;14.332;2022-10-16T13:16:13;98405.16;;;25.89;45.30
75717;BME280;64333;50.138;14.332;2022-10-16T13:29:35;98421.16;;;24.41;49.88
75717;BME280;64333;50.138;14.332;2022-10-16T13:32:07;98419.41;;;24.15;50.90
75717;BME280;64333;50.138;14.332;2022-10-16T13:34:44;98417.66;;;24.06;51.33
75717;BME280;64333;50.138;14.332;2022-10-16T13:37:17;98417.00;;;23.58;52.52
75717;BME280;64333;50.138;14.332;2022-10-16T13:39:43;98424.81;;;23.50;53.58
75717;BME280;64333;50.138;14.332;2022-10-16T13:42:14;98433.91;;;23.19;54.47
75717;BME280;64333;50.138;14.332;2022-10-16T13:44:43;98430.72;;;22.97;55.59
75717;BME280;64333;50.138;14.332;2022-10-16T13:47:20;98433.78;;;22.54;56.66
75717;BME280;64333;50.138;14.332;2022-10-16T13:49:48;98436.34;;;22.35;57.73
75717;BME280;64333;50.138;14.332;2022-10-16T13:52:23;98438.97;;;22.35;58.14
75717;BME280;64333;50.138;14.332;2022-10-16T13:54:49;98432.31;;;22.31;58.48
75717;BME280;64333;50.138;14.332;2022-10-16T13:57:15;98441.13;;;22.11;58.78
75717;BME280;64333;50.138;14.332;2022-10-16T13:59:41;98434.63;;;22.06;59.30
75717;BME280;64333;50.138;14.332;2022-10-16T14:02:20;98440.25;;;21.92;59.87
75717;BME280;64333;50.138;14.332;2022-10-16T14:04:48;98435.25;;;21.89;59.89
75717;BME280;64333;50.138;14.332;2022-10-16T14:07:24;98433.44;;;21.80;60.77
75717;BME280;64333;50.138;14.332;2022-10-16T14:09:52;98434.13;;;21.82;60.55
75717;BME280;64333;50.138;14.332;2022-10-16T14:12:18;98441.47;;;21.88;60.56
75717;BME280;64333;50.138;14.332;2022-10-16T14:14:47;98439.13;;;21.85;60.88
75717;BME280;64333;50.138;14.332;2022-10-16T14:17:26;98454.63;;;21.88;60.97
75717;BME280;64333;50.138;14.332;2022-10-16T14:19:54;98448.69;;;21.86;61.34
75717;BME280;64333;50.138;14.332;2022-10-16T14:22:28;98446.13;;;21.75;61.73
75717;BME280;64333;50.138;14.332;2022-10-16T14:24:55;98448.38;;;21.59;62.49
75717;BME280;64333;50.138;14.332;2022-10-16T14:27:28;98443.88;;;21.40;63.03
75717;BME280;64333;50.138;14.332;2022-10-16T14:32:52;98443.53;;;21.34;63.78
75717;BME280;64333;50.138;14.332;2022-10-16T14:35:41;98445.88;;;21.27;64.09
75717;BME280;64333;50.138;14.332;2022-10-16T14:38:18;98453.03;;;21.25;64.22
75717;BME280;64333;50.138;14.332;2022-10-16T14:40:47;98443.19;;;21.18;64.84
75717;BME280;64333;50.138;14.332;2022-10-16T14:43:22;98441.59;;;21.26;64.59
75717;BME280;64333;50.138;14.332;2022-10-16T14:45:53;98447.59;;;21.38;64.23
75717;BME280;64333;50.138;14.332;2022-10-16T14:48:19;98448.09;;;21.32;64.75
75717;BME280;64333;50.138;14.332;2022-10-16T14:50:46;98451.88;;;21.39;64.62
75717;BME280;64333;50.138;14.332;2022-10-16T14:53:12;98453.53;;;21.40;65.01
75717;BME280;64333;50.138;14.332;2022-10-16T14:55:38;98458.56;;;21.43;64.22
75717;BME280;64333;50.138;14.332;2022-10-16T14:58:04;98451.25;;;21.46;64.37
75717;BME280;64333;50.138;14.332;2022-10-16T15:00:30;98439.38;;;21.52;64.04
75717;BME280;64333;50.138;14.332;2022-10-16T15:02:55;98451.66;;;22.11;62.54
75717;BME280;64333;50.138;14.332;2022-10-16T15:05:23;98450.81;;;22.69;60.78
75717;BME280;64333;50.138;14.332;2022-10-16T15:07:49;98454.00;;;22.63;60.97
75717;BME280;64333;50.138;14.332;2022-10-16T15:10:16;98455.94;;;22.52;61.00